National Weather Service United States Department of Commerce

Heavy Snow For Portions of the Northeast; Great Lakes

Moderate to heavy snow will return to the Northeast and New England over the next couple of days. Heavy Lake Effect Snow will continue to the lee of the Great Lakes. Light snow will fall across portions of the Tennessee Valley; working into the Mid-Atlantic by mid-week. Meanwhile, elevated fire weather conditions will continue in southern California. Read More >

                                      ZTL Airspace Summary / KAGS TAF                    For ATC Planning Purposes only
ZTL Airspace Summary:
A cold front will move southeast through NW ZTL overnight. Expect VFR conditions over all ZTL this evening with patchy MVFR conditions and occasional light snow in TN/VA and the NC mountains early Tuesday morning. Surface winds will be southwest to northwest at 5-15kts. Flight Hazards: LGT-MOD Turbulence above FL220 over all ZTL and below 080 over VA/TN/AL and N GA/SC/NC. LGT Rime/Mixed icing 140-FL220 over TN/VA/NC and N GA/SC.

Updated:12/11/2017 9:00 PM
 

Augusta Terminal Aerodrome Forecast:
 
FTUS42 KCAE 120525
KAGS 120525Z 1206/1306 23007KT P6SM SCT250 WS020/27040KT
     FM121400 28013G20KT P6SM SCT250
     FM121700 29016G26KT P6SM SCT040
     FM130000 29013G22KT P6SM SKC=

 

AGS METAR:  
SAUS70 KAGS 120600 RRE
METAR KAGS 120553Z AUTO 23007KT 10SM CLR 08/02 A2995 RMK AO2 SLP140
     T00780022 10089 20039 58019

Go to KAGS TAF TDA
Go to KAGS TAF TDA

 
 
AGS TRACON HAZARDS
AGS TRACON: SFC-10000
AVG CIG BASE WHERE REPORTED BLW 10000FT: NONE REPORTED
LOWEST REPORTED CIG: NONE REPORTED
LOWEST REPORTED FLIGHT CAT: VFR
METARS:
KDNL 120553Z AUTO 23006KT 10SM CLR 10/02 A2994 RMK AO2 SLP138 T01000022 10117 20100 58019
KAIK 120615Z AUTO 21005KT 10SM CLR 06/01 A2996 RMK AO2
K2J3 120610Z AUTO 25009KT 10SM CLR 09/02 A2996 RMK AO2 T00910019
KAGS 120553Z AUTO 23007KT 10SM CLR 08/02 A2995 RMK AO2 SLP140 T00780022 10089 20039 58019
KHQU 120615Z AUTO 30006KT 10SM CLR 07/02 A2999 RMK AO2 T00690022

AGS TRACON HAZARD

Forecast Surface Map Loop / Collaborative Convective Forecast Product / Vertical Wind Profile
Weather Map

 

AIRMETs & SIGMETS/ Southeast Radar loop / Satellite Image (click on image to enlarge)
Weather Map Southeast Radar Loop

satellite